Time;durP1;ratioP1;P1;durP2;ratioP2;P2;SDS_P1;SDS_P2;PMS_P1;PMS_P2;Temp;Humidity;BMP_temperature;BMP_pressure;BME280_temperature;BME280_humidity;BME280_pressure;Samples;Min_cycle;Max_cycle;Signal;HPM_P1;HPM_P2
2022/06/26 00:02:17;;;;;;;;;1.00;1.00;;;;;-146.44;100.00;58906.56;5081990;27;45612;-59
2022/06/26 00:04:44;;;;;;;;;2.00;2.00;;;;;-146.44;100.00;58906.56;5097839;27;45466;-59
2022/06/26 00:07:09;;;;;;;;;3.00;1.67;;;;;-146.44;100.00;58906.56;5098042;27;46266;-58
2022/06/26 00:09:34;;;;;;;;;2.67;2.00;;;;;-146.44;100.00;58906.56;5098028;27;45493;-58
2022/06/26 00:12:00;;;;;;;;;2.00;2.00;;;;;-146.44;100.00;58906.56;5097987;27;45410;-58
2022/06/26 00:14:25;;;;;;;;;2.67;2.00;;;;;-146.44;100.00;58906.56;5098026;27;45738;-58
2022/06/26 00:16:51;;;;;;;;;2.00;2.00;;;;;-146.44;100.00;58906.56;5094721;27;45469;-59
2022/06/26 00:19:16;;;;;;;;;4.67;2.00;;;;;-146.44;100.00;58906.56;5090819;27;45600;-58
2022/06/26 00:21:42;;;;;;;;;3.00;2.00;;;;;-146.44;100.00;58906.56;5077478;28;45530;-59
2022/06/26 00:24:07;;;;;;;;;1.00;1.00;;;;;-146.44;100.00;58906.56;5077358;28;45576;-58
2022/06/26 00:26:33;;;;;;;;;1.67;1.67;;;;;-146.44;100.00;58906.56;5077094;28;45457;-58
2022/06/26 00:28:58;;;;;;;;;1.00;1.00;;;;;-146.44;100.00;58906.56;5077344;28;45497;-58
2022/06/26 00:31:24;;;;;;;;;1.00;1.00;;;;;-146.44;100.00;58906.56;5077376;28;45423;-58
2022/06/26 00:33:49;;;;;;;;;1.67;1.67;;;;;-146.44;100.00;58906.56;5081545;27;45570;-59
2022/06/26 00:36:14;;;;;;;;;4.00;2.00;;;;;-146.44;100.00;58906.56;5097396;27;45444;-60
2022/06/26 00:38:39;;;;;;;;;1.00;1.00;;;;;-146.44;100.00;58906.56;5097671;27;45344;-59
2022/06/26 00:41:05;;;;;;;;;2.00;2.00;;;;;-146.44;100.00;58906.56;5097330;27;45411;-59
2022/06/26 00:43:31;;;;;;;;;3.67;2.00;;;;;-146.44;100.00;58906.56;5097492;27;45485;-60
2022/06/26 00:45:56;;;;;;;;;2.33;2.00;;;;;-146.44;100.00;58906.56;5097082;27;45559;-57
2022/06/26 00:48:22;;;;;;;;;0.00;0.00;;;;;-146.44;100.00;58906.56;5096593;27;45514;-58
2022/06/26 00:50:48;;;;;;;;;1.00;1.00;;;;;-146.44;100.00;58906.56;5097601;27;45463;-58
2022/06/26 00:53:13;;;;;;;;;1.00;1.00;;;;;-146.44;100.00;58906.56;5084191;27;45505;-58
2022/06/26 00:55:39;;;;;;;;;3.33;2.00;;;;;-146.44;100.00;58906.56;5076894;28;46042;-58
2022/06/26 00:58:05;;;;;;;;;1.33;1.33;;;;;-146.44;100.00;58906.56;5076887;28;45578;-58
2022/06/26 01:00:30;;;;;;;;;3.33;2.67;;;;;-146.44;100.00;58906.56;5076853;28;45481;-58
2022/06/26 01:02:55;;;;;;;;;1.33;1.33;;;;;-146.44;100.00;58906.56;5077094;28;45399;-57
2022/06/26 01:05:21;;;;;;;;;1.67;1.67;;;;;-146.44;100.00;58906.56;5057811;28;47499;-58
2022/06/26 01:07:47;;;;;;;;;1.00;1.00;;;;;-146.44;100.00;58906.56;5087784;27;45465;-58
2022/06/26 01:10:12;;;;;;;;;0.33;0.33;;;;;-146.44;100.00;58906.56;5097230;27;45429;-58
2022/06/26 01:12:37;;;;;;;;;1.00;1.00;;;;;-146.44;100.00;58906.56;5096901;27;45465;-58
2022/06/26 01:15:07;;;;;;;;;1.67;1.67;;;;;-146.44;100.00;58906.56;5097193;27;46127;-57
2022/06/26 01:17:33;;;;;;;;;2.67;2.67;;;;;-146.44;100.00;58906.56;5097086;27;45547;-59
2022/06/26 01:19:59;;;;;;;;;4.00;2.00;;;;;-146.44;100.00;58906.56;5096923;27;45458;-59
2022/06/26 01:22:29;;;;;;;;;2.00;2.00;;;;;-146.44;100.00;58906.56;5096756;27;45591;-60
2022/06/26 01:24:54;;;;;;;;;2.00;2.00;;;;;-146.44;100.00;58906.56;5097130;27;45423;-59
2022/06/26 01:27:20;;;;;;;;;1.00;1.00;;;;;-146.44;100.00;58906.56;5097015;27;46131;-59
2022/06/26 01:29:45;;;;;;;;;2.00;2.00;;;;;-146.44;100.00;58906.56;5097062;27;45477;-59
2022/06/26 01:32:10;;;;;;;;;2.33;2.00;;;;;-146.44;100.00;58906.56;5096983;27;45445;-59
2022/06/26 01:34:36;;;;;;;;;1.00;1.00;;;;;-146.44;100.00;58906.56;5094331;27;45830;-59
2022/06/26 01:37:02;;;;;;;;;3.00;1.33;;;;;-146.44;100.00;58906.56;5096798;27;45592;-60
2022/06/26 01:39:27;;;;;;;;;1.00;1.00;;;;;-146.44;100.00;58906.56;5096881;27;45544;-59
2022/06/26 01:41:52;;;;;;;;;2.00;2.00;;;;;-146.44;100.00;58906.56;5093545;27;45544;-60
2022/06/26 01:44:18;;;;;;;;;2.00;2.00;;;;;-146.44;100.00;58906.56;5096406;27;45867;-60
2022/06/26 01:46:43;;;;;;;;;1.67;1.67;;;;;-146.44;100.00;58906.56;5096756;27;45476;-60
2022/06/26 01:49:08;;;;;;;;;1.00;1.00;;;;;-146.44;100.00;58906.56;5096620;27;45423;-60
2022/06/26 01:51:34;;;;;;;;;3.00;3.00;;;;;-146.44;100.00;58906.56;5094831;27;45475;-60
2022/06/26 01:53:59;;;;;;;;;1.67;1.67;;;;;-146.44;100.00;58906.56;5096536;27;45794;-58
2022/06/26 01:56:25;;;;;;;;;2.00;2.00;;;;;-146.44;100.00;58906.56;5096185;27;45391;-57
2022/06/26 01:58:51;;;;;;;;;1.67;1.67;;;;;-146.44;100.00;58906.56;5096544;27;45494;-57
2022/06/26 02:01:16;;;;;;;;;2.00;2.00;;;;;-146.44;100.00;58906.56;5096291;27;45626;-58
2022/06/26 02:03:42;;;;;;;;;2.00;2.00;;;;;-146.44;100.00;58906.56;5096163;27;45548;-59
2022/06/26 02:06:07;;;;;;;;;3.00;2.00;;;;;-146.44;100.00;58906.56;5085372;27;45492;-58
2022/06/26 02:08:32;;;;;;;;;2.33;2.33;;;;;-146.44;100.00;58906.56;5075716;28;45613;-59
2022/06/26 02:13:43;;;;;;;;;5.33;3.00;;;;;-146.44;100.00;58906.56;5075630;28;45472;-57
2022/06/26 02:16:11;;;;;;;;;4.00;4.00;;;;;-146.44;100.00;58906.56;5075094;28;45505;-58
2022/06/26 02:18:42;;;;;;;;;2.00;2.00;;;;;-146.44;100.00;58906.56;5078885;27;45435;-59
2022/06/26 02:21:10;;;;;;;;;2.00;2.00;;;;;-146.44;100.00;58906.56;5095868;27;45455;-58
2022/06/26 02:23:37;;;;;;;;;3.67;2.67;;;;;-146.44;100.00;58906.56;5095636;27;45465;-58
2022/06/26 02:26:04;;;;;;;;;1.67;1.67;;;;;-146.44;100.00;58906.56;5095695;27;45475;-59
2022/06/26 02:28:29;;;;;;;;;2.00;2.00;;;;;-146.44;100.00;58906.56;5095965;27;45508;-59
2022/06/26 02:30:55;;;;;;;;;3.00;3.00;;;;;-146.44;100.00;58906.56;5084533;27;45696;-58
2022/06/26 02:33:22;;;;;;;;;3.00;3.00;;;;;-146.44;100.00;58906.56;5075095;28;45462;-59
2022/06/26 02:35:48;;;;;;;;;2.00;2.00;;;;;-146.44;100.00;58906.56;5075337;28;45552;-59
2022/06/26 02:38:15;;;;;;;;;3.00;3.00;;;;;-146.44;100.00;58906.56;5075194;28;45497;-58
2022/06/26 02:40:41;;;;;;;;;2.00;2.00;;;;;-146.44;100.00;58906.56;5075258;28;45486;-58
2022/06/26 02:43:06;;;;;;;;;2.67;2.67;;;;;-146.44;100.00;58906.56;5074944;28;46066;-59
2022/06/26 02:45:32;;;;;;;;;3.33;3.33;;;;;-146.44;100.00;58906.56;5083795;27;47642;-58
2022/06/26 02:47:57;;;;;;;;;3.00;3.00;;;;;-146.44;100.00;58906.56;5095700;27;45568;-59
2022/06/26 02:50:23;;;;;;;;;2.33;2.33;;;;;-146.44;100.00;58906.56;5095510;27;45574;-59
2022/06/26 02:52:48;;;;;;;;;2.00;2.00;;;;;-146.44;100.00;58906.56;5076723;27;47276;-59
2022/06/26 02:55:13;;;;;;;;;2.00;2.00;;;;;-146.44;100.00;58906.56;5076492;27;45602;-58
2022/06/26 02:57:40;;;;;;;;;2.00;2.00;;;;;-146.44;100.00;58906.56;5074891;28;45483;-59
2022/06/26 03:00:07;;;;;;;;;2.33;2.00;;;;;-146.44;100.00;58906.56;5075017;28;45660;-59
2022/06/26 03:02:32;;;;;;;;;3.33;2.33;;;;;-146.44;100.00;58906.56;5074730;28;45446;-59
2022/06/26 03:04:57;;;;;;;;;3.00;3.00;;;;;-146.44;100.00;58906.56;5074740;28;45428;-58
2022/06/26 03:07:23;;;;;;;;;3.67;3.67;;;;;-146.44;100.00;58906.56;5075130;28;45468;-59
2022/06/26 03:09:48;;;;;;;;;2.00;1.67;;;;;-146.44;100.00;58906.56;5093223;27;45471;-59
2022/06/26 03:12:14;;;;;;;;;3.33;2.00;;;;;-146.44;100.00;58906.56;5094939;27;46444;-58
2022/06/26 03:14:39;;;;;;;;;3.67;3.67;;;;;-146.44;100.00;58906.56;5095041;27;45557;-59
2022/06/26 03:17:05;;;;;;;;;5.00;3.33;;;;;-146.44;100.00;58906.56;5094853;27;45503;-58
2022/06/26 03:19:30;;;;;;;;;3.67;3.67;;;;;-146.44;100.00;58906.56;5095233;27;45630;-59
2022/06/26 03:21:56;;;;;;;;;3.00;3.00;;;;;-146.44;100.00;58906.56;5074890;27;45620;-59
2022/06/26 03:24:21;;;;;;;;;4.00;3.00;;;;;-146.44;100.00;58906.56;5074517;28;45499;-58
2022/06/26 03:26:47;;;;;;;;;2.33;2.33;;;;;-146.44;100.00;58906.56;5074793;28;45629;-59
2022/06/26 03:29:13;;;;;;;;;5.33;4.00;;;;;-146.44;100.00;58906.56;5074397;28;45588;-59
2022/06/26 03:31:38;;;;;;;;;3.00;3.00;;;;;-146.44;100.00;58906.56;5076093;27;46029;-59
2022/06/26 03:34:04;;;;;;;;;3.67;2.00;;;;;-146.44;100.00;58906.56;5094734;27;45567;-58
2022/06/26 03:36:30;;;;;;;;;3.00;3.00;;;;;-146.44;100.00;58906.56;5095030;27;45505;-59
2022/06/26 03:38:56;;;;;;;;;2.00;2.00;;;;;-146.44;100.00;58906.56;5094872;27;45644;-58
2022/06/26 03:41:22;;;;;;;;;2.33;2.33;;;;;-146.44;100.00;58906.56;5093263;27;47481;-58
2022/06/26 03:43:48;;;;;;;;;3.67;2.67;;;;;-146.44;100.00;58906.56;5094649;27;45672;-58
2022/06/26 03:46:14;;;;;;;;;2.33;2.33;;;;;-146.44;100.00;58906.56;5094119;27;45433;-58
2022/06/26 03:48:40;;;;;;;;;2.33;2.33;;;;;-146.44;100.00;58906.56;5093810;27;45589;-58
2022/06/26 03:51:06;;;;;;;;;2.33;2.33;;;;;-146.44;100.00;58906.56;5094523;27;46438;-59
2022/06/26 03:53:33;;;;;;;;;2.00;2.00;;;;;-146.44;100.00;58906.56;5074246;27;45572;-59
2022/06/26 03:55:58;;;;;;;;;2.00;2.00;;;;;-146.44;100.00;58906.56;5074242;28;45597;-58
2022/06/26 03:58:24;;;;;;;;;2.67;2.67;;;;;-146.44;100.00;58906.56;5074492;28;45506;-58
2022/06/26 04:00:50;;;;;;;;;2.67;2.67;;;;;-146.44;100.00;58906.56;5074010;28;46218;-58
2022/06/26 04:03:16;;;;;;;;;3.00;3.00;;;;;-146.44;100.00;58906.56;5074071;28;45579;-59
2022/06/26 04:05:42;;;;;;;;;2.67;2.67;;;;;-146.44;100.00;58906.56;5056139;28;45507;-58
2022/06/26 04:08:08;;;;;;;;;2.00;2.00;;;;;-146.44;100.00;58906.56;5075272;27;45508;-58
2022/06/26 04:10:34;;;;;;;;;3.00;3.00;;;;;-146.44;100.00;58906.56;5081815;27;45623;-58
2022/06/26 04:13:10;;;;;;;;;4.00;2.00;;;;;-146.44;100.00;58906.56;5094169;27;45602;-57
2022/06/26 04:15:37;;;;;;;;;2.33;2.33;;;;;-146.44;100.00;58906.56;5094339;27;45538;-57
2022/06/26 04:18:03;;;;;;;;;2.00;2.00;;;;;-146.44;100.00;58906.56;5094479;27;45425;-58
2022/06/26 04:20:29;;;;;;;;;3.33;3.00;;;;;-146.44;100.00;58906.56;5094130;27;45556;-58
2022/06/26 04:23:00;;;;;;;;;3.67;2.00;;;;;-146.44;100.00;58906.56;5093777;27;45490;-59
2022/06/26 04:25:27;;;;;;;;;2.00;2.00;;;;;-146.44;100.00;58906.56;5084838;27;45536;-59
2022/06/26 04:27:53;;;;;;;;;3.00;3.00;;;;;-146.44;100.00;58906.56;5073981;28;45570;-59
2022/06/26 04:30:19;;;;;;;;;4.33;3.00;;;;;-146.44;100.00;58906.56;5074641;27;45955;-59
2022/06/26 04:32:44;;;;;;;;;3.33;3.33;;;;;-146.44;100.00;58906.56;5073605;28;45494;-58
2022/06/26 04:35:10;;;;;;;;;2.00;2.00;;;;;-146.44;100.00;58906.56;5073717;28;45494;-59
2022/06/26 04:37:36;;;;;;;;;3.00;3.00;;;;;-146.44;100.00;58906.56;5073699;28;45566;-59
2022/06/26 04:40:04;;;;;;;;;2.00;2.00;;;;;-146.44;100.00;58906.56;5074345;28;46556;-58
2022/06/26 04:42:29;;;;;;;;;3.33;2.67;;;;;-146.44;100.00;58906.56;5076909;28;45577;-59
2022/06/26 04:44:55;;;;;;;;;2.00;2.00;;;;;-146.44;100.00;58906.56;5078083;27;45449;-59
2022/06/26 04:47:20;;;;;;;;;2.00;2.00;;;;;-146.44;100.00;58906.56;5077002;28;45470;-58
2022/06/26 04:49:45;;;;;;;;;1.00;1.00;;;;;-146.44;100.00;58906.56;5085662;27;46134;-59
2022/06/26 04:52:11;;;;;;;;;1.00;1.00;;;;;-146.44;100.00;58906.56;5097725;27;45536;-59
2022/06/26 04:54:36;;;;;;;;;3.67;3.67;;;;;-146.44;100.00;58906.56;5097390;27;45559;-58
2022/06/26 04:57:01;;;;;;;;;4.67;3.00;;;;;-146.44;100.00;58906.56;5096973;27;49181;-59
2022/06/26 04:59:27;;;;;;;;;3.00;1.67;;;;;-146.44;100.00;58906.56;5097031;27;45518;-58
2022/06/26 05:01:52;;;;;;;;;3.00;3.00;;;;;-146.44;100.00;58906.56;5095246;27;45509;-58
2022/06/26 05:04:17;;;;;;;;;2.67;2.67;;;;;-146.44;100.00;58906.56;5097304;27;45551;-58
2022/06/26 05:06:43;;;;;;;;;2.00;2.00;;;;;-146.44;100.00;58906.56;5097304;27;45497;-59
2022/06/26 05:09:08;;;;;;;;;2.00;2.00;;;;;-146.44;100.00;58906.56;5095210;27;45626;-58
2022/06/26 05:11:34;;;;;;;;;3.33;3.00;;;;;-146.44;100.00;58906.56;5097050;27;45536;-59
2022/06/26 05:13:59;;;;;;;;;4.67;1.33;;;;;-146.44;100.00;58906.56;5096996;27;45495;-58
2022/06/26 05:16:24;;;;;;;;;4.00;2.00;;;;;-146.44;100.00;58906.56;5096922;27;47605;-59
2022/06/26 05:18:49;;;;;;;;;2.00;2.00;;;;;-146.44;100.00;58906.56;5096901;27;46411;-58
2022/06/26 05:21:15;;;;;;;;;3.00;3.00;;;;;-146.44;100.00;58906.56;5096723;27;45442;-58
2022/06/26 05:23:40;;;;;;;;;2.00;2.00;;;;;-146.44;100.00;58906.56;5078147;27;45534;-59
2022/06/26 05:26:06;;;;;;;;;1.00;1.00;;;;;-146.44;100.00;58906.56;5096901;27;45468;-59
2022/06/26 05:28:32;;;;;;;;;2.67;2.00;;;;;-146.44;100.00;58906.56;5078514;27;47499;-58
2022/06/26 05:30:57;;;;;;;;;2.00;2.00;;;;;-146.44;100.00;58906.56;5096879;27;45482;-59
2022/06/26 05:33:22;;;;;;;;;3.00;2.00;;;;;-146.44;100.00;58906.56;5096816;27;45913;-58
2022/06/26 05:35:48;;;;;;;;;1.33;1.33;;;;;-146.44;100.00;58906.56;5097115;27;45555;-58
2022/06/26 05:38:13;;;;;;;;;2.00;1.33;;;;;-146.44;100.00;58906.56;5091686;27;45498;-59
2022/06/26 05:40:39;;;;;;;;;2.00;2.00;;;;;-146.44;100.00;58906.56;5091847;27;45486;-58
2022/06/26 05:43:04;;;;;;;;;2.00;2.00;;;;;-146.44;100.00;58906.56;5075925;28;45524;-58
2022/06/26 05:45:29;;;;;;;;;2.33;2.33;;;;;-146.44;100.00;58906.56;5076273;27;45592;-57
2022/06/26 05:47:55;;;;;;;;;3.00;2.00;;;;;-146.44;100.00;58906.56;5080510;27;46452;-57
2022/06/26 05:50:21;;;;;;;;;2.00;2.00;;;;;-146.44;100.00;58906.56;5095369;27;46529;-57
2022/06/26 05:52:47;;;;;;;;;4.00;3.00;;;;;-146.44;100.00;58906.56;5090666;27;45529;-58
2022/06/26 05:55:13;;;;;;;;;3.00;3.00;;;;;-146.44;100.00;58906.56;5076416;28;45578;-57
2022/06/26 05:57:38;;;;;;;;;2.33;2.33;;;;;-146.44;100.00;58906.56;5075869;28;45505;-58
2022/06/26 06:00:06;;;;;;;;;2.00;2.00;;;;;-146.44;100.00;58906.56;5075988;28;50253;-57
2022/06/26 06:02:32;;;;;;;;;3.00;2.00;;;;;-146.44;100.00;58906.56;5076381;28;45450;-56
2022/06/26 06:04:57;;;;;;;;;2.00;2.00;;;;;-146.44;100.00;58906.56;5080790;27;45560;-57
2022/06/26 06:07:23;;;;;;;;;3.00;2.00;;;;;-146.44;100.00;58906.56;5096171;27;51177;-58
2022/06/26 06:09:48;;;;;;;;;1.67;1.67;;;;;-146.44;100.00;58906.56;5096519;27;45521;-57
2022/06/26 06:12:13;;;;;;;;;1.00;1.00;;;;;-146.44;100.00;58906.56;5096329;27;45533;-57
2022/06/26 06:14:39;;;;;;;;;2.00;2.00;;;;;-146.44;100.00;58906.56;5096364;27;45679;-57
2022/06/26 06:19:48;;;;;;;;;4.00;2.67;;;;;-146.44;100.00;58906.56;5075766;28;45520;-57
2022/06/26 06:22:13;;;;;;;;;2.00;2.00;;;;;-146.44;100.00;58906.56;5075604;28;45984;-56
2022/06/26 06:24:38;;;;;;;;;3.00;3.00;;;;;-146.44;100.00;58906.56;5074920;28;45474;-57
2022/06/26 06:27:04;;;;;;;;;1.00;1.00;;;;;-146.44;100.00;58906.56;5076708;27;46601;-56
2022/06/26 06:29:29;;;;;;;;;1.33;1.33;;;;;-146.44;100.00;58906.56;5075812;28;45368;-57
2022/06/26 06:31:55;;;;;;;;;2.00;2.00;;;;;-146.44;100.00;58906.56;5076320;28;45404;-57
2022/06/26 06:34:20;;;;;;;;;3.00;2.00;;;;;-146.44;100.00;58906.56;5075915;28;45483;-56
2022/06/26 06:36:46;;;;;;;;;2.00;2.00;;;;;-146.44;100.00;58906.56;5075514;28;55974;-56
2022/06/26 06:39:11;;;;;;;;;1.00;1.00;;;;;-146.44;100.00;58906.56;5075783;28;45464;-56
2022/06/26 06:41:36;;;;;;;;;2.00;2.00;;;;;-146.44;100.00;58906.56;5088595;27;45812;-57
2022/06/26 06:44:02;;;;;;;;;1.33;1.33;;;;;-146.44;100.00;58906.56;5095731;27;45465;-57
2022/06/26 06:46:27;;;;;;;;;2.00;2.00;;;;;-146.44;100.00;58906.56;5081330;27;45457;-57
2022/06/26 06:48:53;;;;;;;;;3.00;2.00;;;;;-146.44;100.00;58906.56;5075399;28;45434;-57
2022/06/26 06:51:19;;;;;;;;;1.33;1.00;;;;;-146.44;100.00;58906.56;5075652;28;45566;-56
2022/06/26 06:53:45;;;;;;;;;3.00;2.00;;;;;-146.44;100.00;58906.56;5057415;28;45550;-58
2022/06/26 06:56:11;;;;;;;;;1.67;1.00;;;;;-146.44;100.00;58906.56;5075519;28;45523;-57
2022/06/26 06:58:36;;;;;;;;;2.00;2.00;;;;;-146.44;100.00;58906.56;5089922;27;45437;-55
2022/06/26 07:01:02;;;;;;;;;1.00;1.00;;;;;-146.44;100.00;58906.56;5095949;27;45490;-57
2022/06/26 07:03:27;;;;;;;;;1.33;1.33;;;;;-146.44;100.00;58906.56;5085364;27;45403;-57
2022/06/26 07:05:52;;;;;;;;;2.00;2.00;;;;;-146.44;100.00;58906.56;5075222;28;45486;-57
2022/06/26 07:08:18;;;;;;;;;2.00;2.00;;;;;-146.44;100.00;58906.56;5075078;28;46005;-57
2022/06/26 07:10:43;;;;;;;;;1.00;1.00;;;;;-146.44;100.00;58906.56;5075428;28;45824;-57
2022/06/26 07:13:10;;;;;;;;;2.00;2.00;;;;;-146.44;100.00;58906.56;5075276;28;45502;-56
2022/06/26 07:15:35;;;;;;;;;1.67;1.67;;;;;-146.44;100.00;58906.56;5084394;27;45562;-57
2022/06/26 07:18:01;;;;;;;;;1.33;1.33;;;;;-146.44;100.00;58906.56;5079945;27;45461;-57
2022/06/26 07:20:26;;;;;;;;;1.00;1.00;;;;;-146.44;100.00;58906.56;5088433;27;45556;-58
2022/06/26 07:22:52;;;;;;;;;2.00;2.00;;;;;-146.44;100.00;58906.56;5078996;27;45735;-57
2022/06/26 07:25:17;;;;;;;;;2.33;2.33;;;;;-146.44;100.00;58906.56;5080784;27;46042;-57
2022/06/26 07:27:44;;;;;;;;;3.00;1.00;;;;;-146.44;100.00;58906.56;5086194;27;45520;-58
2022/06/26 07:30:10;;;;;;;;;2.00;1.00;;;;;-146.44;100.00;58906.56;5090476;27;45592;-58
2022/06/26 07:32:35;;;;;;;;;2.00;2.00;;;;;-146.44;100.00;58906.56;5084870;27;45676;-59
2022/06/26 07:35:00;;;;;;;;;2.00;2.00;;;;;-146.44;100.00;58906.56;5074237;28;45475;-58
2022/06/26 07:37:26;;;;;;;;;2.00;2.00;;;;;-146.44;100.00;58906.56;5090844;27;45427;-58
2022/06/26 07:39:51;;;;;;;;;1.00;1.00;;;;;-146.44;100.00;58906.56;5094513;27;45776;-58
2022/06/26 07:42:17;;;;;;;;;2.00;1.00;;;;;-146.44;100.00;58906.56;5093757;27;45464;-59
2022/06/26 07:44:42;;;;;;;;;2.00;0.67;;;;;-146.44;100.00;58906.56;5074607;27;47229;-59
2022/06/26 07:47:07;;;;;;;;;2.00;0.67;;;;;-146.44;100.00;58906.56;5082709;27;45515;-59
2022/06/26 07:49:32;;;;;;;;;1.33;1.33;;;;;-146.44;100.00;58906.56;5093846;27;45523;-59
2022/06/26 07:51:58;;;;;;;;;2.00;1.00;;;;;-146.44;100.00;58906.56;5094865;27;45505;-59
2022/06/26 07:54:23;;;;;;;;;1.00;1.00;;;;;-146.44;100.00;58906.56;5092184;27;45459;-58
2022/06/26 07:56:50;;;;;;;;;3.00;2.00;;;;;-146.44;100.00;58906.56;5073985;28;45529;-58
2022/06/26 07:59:16;;;;;;;;;2.33;2.33;;;;;-146.44;100.00;58906.56;5074241;28;46119;-59
2022/06/26 08:01:41;;;;;;;;;0.67;0.67;;;;;-146.44;100.00;58906.56;5074085;28;45455;-62
2022/06/26 08:04:07;;;;;;;;;1.00;1.00;;;;;-146.44;100.00;58906.56;5074088;27;45448;-62
2022/06/26 08:06:33;;;;;;;;;3.33;2.00;;;;;-146.44;100.00;58906.56;5077123;27;45481;-62
2022/06/26 08:08:58;;;;;;;;;1.00;1.00;;;;;-146.44;100.00;58906.56;5094423;27;45528;-61
2022/06/26 08:11:24;;;;;;;;;1.00;1.00;;;;;-146.44;100.00;58906.56;5082657;27;45602;-61
2022/06/26 08:13:49;;;;;;;;;1.67;1.67;;;;;-146.44;100.00;58906.56;5092919;27;46414;-61
2022/06/26 08:16:15;;;;;;;;;1.33;1.00;;;;;-146.44;100.00;58906.56;5094712;27;45903;-60
2022/06/26 08:18:41;;;;;;;;;2.33;0.33;;;;;-146.44;100.00;58906.56;5096236;27;45510;-60
2022/06/26 08:23:50;;;;;;;;;2.33;1.67;;;;;-146.44;100.00;58906.56;5078253;27;45559;-61
2022/06/26 08:26:16;;;;;;;;;1.00;1.00;;;;;-146.44;100.00;58906.56;5078225;27;45525;-61
2022/06/26 08:28:41;;;;;;;;;1.00;1.00;;;;;-146.44;100.00;58906.56;5096729;27;45595;-60
2022/06/26 08:31:07;;;;;;;;;2.00;2.00;;;;;-146.44;100.00;58906.56;5080132;27;45543;-61
2022/06/26 08:33:32;;;;;;;;;2.00;2.00;;;;;-146.44;100.00;58906.56;5080225;27;45831;-62
2022/06/26 08:35:58;;;;;;;;;2.00;2.00;;;;;-146.44;100.00;58906.56;5081138;27;45505;-64
2022/06/26 08:38:23;;;;;;;;;2.00;2.00;;;;;-146.44;100.00;58906.56;5086676;27;45481;-64
2022/06/26 08:40:49;;;;;;;;;2.00;2.00;;;;;-146.44;100.00;58906.56;5077094;28;45415;-60
2022/06/26 08:43:21;;;;;;;;;0.00;0.00;;;;;-146.44;100.00;58906.56;5094225;27;46359;-61
2022/06/26 08:45:50;;;;;;;;;1.00;1.00;;;;;-146.44;100.00;58906.56;5079040;27;45503;-63
2022/06/26 08:48:18;;;;;;;;;2.33;2.33;;;;;-146.44;100.00;58906.56;5097590;27;45592;-62
2022/06/26 08:50:44;;;;;;;;;5.00;2.00;;;;;-146.44;100.00;58906.56;5096467;27;45635;-66
2022/06/26 08:53:10;;;;;;;;;1.67;1.33;;;;;-146.44;100.00;58906.56;5080778;27;45476;-69
2022/06/26 08:55:36;;;;;;;;;1.00;1.00;;;;;-146.44;100.00;58906.56;5076772;27;45502;-69
2022/06/26 08:58:02;;;;;;;;;1.67;1.00;;;;;-146.44;100.00;58906.56;5076661;28;45477;-65
2022/06/26 09:00:30;;;;;;;;;1.67;1.67;;;;;-146.44;100.00;58906.56;5077640;27;45514;-64
2022/06/26 09:02:55;;;;;;;;;2.33;2.33;;;;;-146.44;100.00;58906.56;5096989;27;46722;-68
2022/06/26 09:05:20;;;;;;;;;2.33;1.33;;;;;-146.44;100.00;58906.56;5093715;27;45485;-68
2022/06/26 09:07:52;;;;;;;;;2.00;2.00;;;;;-146.44;100.00;58906.56;5084155;27;45558;-67
2022/06/26 09:10:18;;;;;;;;;1.00;1.00;;;;;-146.44;100.00;58906.56;5093961;27;45533;-68
2022/06/26 09:12:50;;;;;;;;;2.00;2.00;;;;;-146.44;100.00;58906.56;5082824;27;46104;-67
2022/06/26 09:15:17;;;;;;;;;2.00;2.00;;;;;-146.44;100.00;58906.56;5096916;27;45540;-68
2022/06/26 09:18:00;;;;;;;;;0.75;0.75;;;;;-146.44;100.00;58906.56;5090537;27;45497;-69
2022/06/26 09:20:25;;;;;;;;;0.50;0.50;;;;;-146.44;100.00;58906.56;5076420;28;45504;-71
2022/06/26 09:22:56;;;;;;;;;3.00;1.00;;;;;-146.44;100.00;58906.56;5094735;27;46361;-70
2022/06/26 09:25:37;;;;;;;;;1.00;1.00;;;;;-146.44;100.00;58906.56;5096498;27;45463;-66
2022/06/26 09:28:11;;;;;;;;;3.00;1.00;;;;;-146.44;100.00;58906.56;5072956;28;45528;-63
2022/06/26 09:31:06;;;;;;;;;3.67;1.00;;;;;-146.44;100.00;58906.56;5075081;28;45541;-64
2022/06/26 09:33:34;;;;;;;;;0.33;0.33;;;;;-146.44;100.00;58906.56;5057375;28;46220;-64
2022/06/26 09:36:02;;;;;;;;;2.00;2.00;;;;;-146.44;100.00;58906.56;5076112;28;45487;-65
2022/06/26 09:38:31;;;;;;;;;3.67;3.00;;;;;-146.44;100.00;58906.56;5076375;28;45422;-67
2022/06/26 09:41:00;;;;;;;;;3.00;1.50;;;;;-146.44;100.00;58906.56;5076258;28;45472;-65
2022/06/26 09:43:30;;;;;;;;;1.00;1.00;;;;;-146.44;100.00;58906.56;5076151;28;45388;-66
2022/06/26 09:45:57;;;;;;;;;1.25;1.25;;;;;-146.44;100.00;58906.56;5076286;28;45573;-65
2022/06/26 09:48:24;;;;;;;;;2.50;1.25;;;;;-146.44;100.00;58906.56;5075990;28;45466;-64
2022/06/26 09:50:50;;;;;;;;;3.00;3.00;;;;;-146.44;100.00;58906.56;5074682;28;45509;-68
2022/06/26 09:53:20;;;;;;;;;3.00;2.00;;;;;-146.44;100.00;58906.56;5057403;28;47975;-65
2022/06/26 09:55:50;;;;;;;;;2.50;2.00;;;;;-146.44;100.00;58906.56;5070263;28;45578;-64
2022/06/26 09:58:16;;;;;;;;;2.75;2.75;;;;;-146.44;100.00;58906.56;5075103;28;45473;-65
2022/06/26 10:00:42;;;;;;;;;2.00;2.00;;;;;-146.44;100.00;58906.56;5076151;27;45397;-65
2022/06/26 10:08:42;;;;;;;;;1.75;1.75;;;;;-146.44;100.00;58906.56;5096319;27;45481;-66
2022/06/26 10:11:08;;;;;;;;;1.50;1.00;;;;;-146.44;100.00;58906.56;5096439;27;45616;-65
2022/06/26 10:13:36;;;;;;;;;2.00;2.00;;;;;-146.44;100.00;58906.56;5095868;27;45532;-68
2022/06/26 10:16:14;;;;;;;;;1.00;1.00;;;;;-146.44;100.00;58906.56;5095890;27;45512;-66
2022/06/26 10:18:58;;;;;;;;;1.75;1.75;;;;;-146.44;100.00;58906.56;5075917;27;45525;-66
2022/06/26 10:21:24;;;;;;;;;1.75;1.75;;;;;-146.44;100.00;58906.56;5093863;27;45427;-64
2022/06/26 10:23:49;;;;;;;;;1.67;1.00;;;;;-146.44;100.00;58906.56;5090434;27;45379;-66
2022/06/26 10:26:22;;;;;;;;;2.00;2.00;;;;;-146.44;100.00;58906.56;5075517;28;45490;-65
2022/06/26 10:29:01;;;;;;;;;3.00;2.00;;;;;-146.44;100.00;58906.56;5091450;27;45460;-65
2022/06/26 10:31:31;;;;;;;;;2.00;2.00;;;;;-146.44;100.00;58906.56;5084947;27;45517;-60
2022/06/26 10:34:08;;;;;;;;;2.75;2.75;;;;;-146.44;100.00;58906.56;5095279;27;46351;-60
2022/06/26 10:36:34;;;;;;;;;3.00;3.00;;;;;-146.44;100.00;58906.56;5095818;27;46016;-60
2022/06/26 10:39:04;;;;;;;;;2.00;2.00;;;;;-146.44;100.00;58906.56;5076661;27;45771;-60
2022/06/26 10:44:34;;;;;;;;;4.67;3.67;;;;;-146.44;100.00;58906.56;5080409;27;45818;-61
2022/06/26 10:47:00;;;;;;;;;41.67;36.00;;;;;-146.44;100.00;58906.56;5092391;27;45552;-60
2022/06/26 10:49:26;;;;;;;;;12.00;11.00;;;;;-146.44;100.00;58906.56;5072487;28;45605;-60
2022/06/26 10:51:51;;;;;;;;;40.00;35.67;;;;;-146.44;100.00;58906.56;5071211;27;45578;-60
2022/06/26 10:54:22;;;;;;;;;13.67;13.67;;;;;-146.44;100.00;58906.56;5087991;27;45580;-60
2022/06/26 10:57:05;;;;;;;;;2.50;2.50;;;;;-146.44;100.00;58906.56;5093051;27;45551;-61
2022/06/26 10:59:30;;;;;;;;;5.00;5.00;;;;;-146.44;100.00;58906.56;5077269;27;45541;-62
2022/06/26 11:01:55;;;;;;;;;3.75;3.75;;;;;-146.44;100.00;58906.56;5074902;27;45486;-60
2022/06/26 11:04:21;;;;;;;;;6.00;6.00;;;;;-146.44;100.00;58906.56;5075204;28;46310;-61
2022/06/26 11:06:47;;;;;;;;;2.75;2.00;;;;;-146.44;100.00;58906.56;5064545;27;45457;-62
2022/06/26 11:09:16;;;;;;;;;3.00;2.00;;;;;-146.44;100.00;58906.56;5093415;27;45498;-61
2022/06/26 11:11:41;;;;;;;;;4.00;4.00;;;;;-146.44;100.00;58906.56;5075217;27;45481;-60
2022/06/26 11:14:08;;;;;;;;;5.33;5.00;;;;;-146.44;100.00;58906.56;5090578;27;45589;-60
2022/06/26 11:16:38;;;;;;;;;3.50;3.50;;;;;-146.44;100.00;58906.56;5082091;27;45514;-60
2022/06/26 11:19:06;;;;;;;;;5.67;5.67;;;;;-146.44;100.00;58906.56;5095129;27;45873;-61
2022/06/26 11:21:31;;;;;;;;;4.25;3.50;;;;;-146.44;100.00;58906.56;5081062;27;45488;-61
2022/06/26 11:23:57;;;;;;;;;3.33;3.33;;;;;-146.44;100.00;58906.56;5074908;28;46343;-61